Time;durP1;ratioP1;P1;durP2;ratioP2;P2;SDS_P1;SDS_P2;PMS_P1;PMS_P2;Temp;Humidity;BMP_temperature;BMP_pressure;BME280_temperature;BME280_humidity;BME280_pressure;Samples;Min_cycle;Max_cycle;Signal;HPM_P1;HPM_P2
2024/01/04 00:01:34;;;;;;;14.77;14.20;;;;;;;-141.02;100.00;39455.03;5113878;28;20232;-72
2024/01/04 00:04:01;;;;;;;14.40;13.90;;;;;;;-141.02;100.00;39504.91;5114063;28;20232;-72
2024/01/04 00:06:27;;;;;;;14.70;14.20;;;;;;;-141.02;100.00;39487.66;5113789;28;20774;-72
2024/01/04 00:11:35;;;;;;;14.30;13.80;;;;;;;-141.02;100.00;39516.41;5114711;28;20601;-72
2024/01/04 00:14:06;;;;;;;15.00;14.40;;;;;;;-141.02;100.00;39508.75;5113605;28;20229;-73
2024/01/04 00:16:34;;;;;;;14.63;14.13;;;;;;;-141.02;100.00;39491.47;5114158;28;20246;-72
2024/01/04 00:19:01;;;;;;;14.77;14.17;;;;;;;-141.02;100.00;39485.72;5113747;28;20192;-72
2024/01/04 00:21:27;;;;;;;14.20;13.70;;;;;;;-141.02;100.00;39474.22;5113520;28;20280;-72
2024/01/04 00:23:55;;;;;;;14.23;13.73;;;;;;;-141.02;100.00;39489.56;5113366;28;20231;-72
2024/01/04 00:26:22;;;;;;;14.00;13.50;;;;;;;-141.02;100.00;39435.88;5113702;28;20272;-72
2024/01/04 00:28:49;;;;;;;14.50;14.00;;;;;;;-141.02;100.00;39470.38;5113579;28;20201;-72
2024/01/04 00:31:17;;;;;;;14.47;13.97;;;;;;;-141.02;100.00;39432.03;5113334;28;20193;-72
2024/01/04 00:33:44;;;;;;;14.43;13.93;;;;;;;-141.02;100.00;39458.88;5113659;28;20548;-72
2024/01/04 00:36:12;;;;;;;13.83;13.33;;;;;;;-141.02;100.00;39478.06;5113572;28;20201;-72
2024/01/04 00:38:39;;;;;;;14.80;14.30;;;;;;;-141.02;100.00;39470.38;5113650;28;20280;-72
2024/01/04 00:41:06;;;;;;;14.50;14.00;;;;;;;-141.02;100.00;39497.22;5113451;28;20197;-72
2024/01/04 00:43:33;;;;;;;14.47;13.97;;;;;;;-141.02;100.00;39478.06;5113306;28;20225;-73
2024/01/04 00:46:00;;;;;;;14.40;13.90;;;;;;;-141.02;100.00;39464.63;5113029;28;20190;-73
2024/01/04 00:48:28;;;;;;;14.67;14.17;;;;;;;-141.02;100.00;39458.88;5112970;28;20193;-72
2024/01/04 00:50:55;;;;;;;14.27;13.77;;;;;;;-141.02;100.00;39447.38;5112941;28;20279;-73
2024/01/04 00:53:22;;;;;;;14.10;13.60;;;;;;;-141.02;100.00;39456.97;5112856;28;20670;-72
2024/01/04 00:55:49;;;;;;;14.17;13.67;;;;;;;-141.02;100.00;39470.38;5113150;28;20739;-73
2024/01/04 00:58:16;;;;;;;14.00;13.50;;;;;;;-141.02;100.00;39466.53;5113179;28;20194;-73
2024/01/04 01:00:44;;;;;;;14.70;14.20;;;;;;;-141.02;100.00;39481.88;5113114;28;20248;-73
2024/01/04 01:03:11;;;;;;;15.23;14.63;;;;;;;-141.02;100.00;39489.56;5113277;27;20236;-72
2024/01/04 01:05:39;;;;;;;14.70;14.10;;;;;;;-141.02;100.00;39508.75;5113053;28;20323;-73
2024/01/04 01:08:06;;;;;;;14.80;14.20;;;;;;;-141.02;100.00;39493.41;5113051;28;20197;-72
2024/01/04 01:10:34;;;;;;;15.50;14.90;;;;;;;-141.02;100.00;39529.84;5112633;28;20645;-73
2024/01/04 01:13:01;;;;;;;15.30;14.70;;;;;;;-141.02;100.00;39547.09;5112652;28;20193;-72
2024/01/04 01:15:28;;;;;;;15.70;15.00;;;;;;;-141.02;100.00;39543.25;5113033;28;20603;-72
2024/01/04 01:17:55;;;;;;;17.33;16.53;;;;;;;-141.02;100.00;39554.78;5112600;28;20685;-72
2024/01/04 01:20:22;;;;;;;15.50;14.80;;;;;;;-141.02;100.00;39554.78;5112822;28;20203;-73
2024/01/04 01:22:50;;;;;;;20.87;19.87;;;;;;;-141.02;100.00;39558.59;5112404;28;20193;-73
2024/01/04 01:25:17;;;;;;;17.30;16.50;;;;;;;-141.02;100.00;39585.44;5113042;28;20288;-72
2024/01/04 01:27:44;;;;;;;17.23;16.43;;;;;;;-141.02;100.00;39562.44;5112481;28;20239;-72
2024/01/04 01:30:11;;;;;;;16.97;16.17;;;;;;;-141.02;100.00;39564.34;5111944;28;20284;-72
2024/01/04 01:32:50;;;;;;;17.70;16.90;;;;;;;-141.02;100.00;39591.22;5112435;28;20228;-72
2024/01/04 01:35:17;;;;;;;17.07;16.27;;;;;;;-141.02;100.00;39639.16;5112711;28;20226;-73
2024/01/04 01:37:44;;;;;;;18.37;17.47;;;;;;;-141.02;100.00;39627.66;5112639;28;20651;-72
2024/01/04 01:40:13;;;;;;;18.60;17.70;;;;;;;-141.02;100.00;39604.63;5112622;28;20225;-72
2024/01/04 01:42:40;;;;;;;18.67;17.77;;;;;;;-141.02;100.00;39619.97;5112585;28;20280;-72
2024/01/04 01:45:08;;;;;;;19.90;18.90;;;;;;;-141.02;100.00;39589.28;5112624;28;20284;-72
2024/01/04 01:47:35;;;;;;;23.40;22.27;;;;;;;-141.02;100.00;39581.63;5112285;28;20655;-72
2024/01/04 01:50:02;;;;;;;18.03;17.13;;;;;;;-141.02;100.00;39616.13;5112553;28;20276;-72
2024/01/04 01:52:29;;;;;;;18.63;17.73;;;;;;;-141.02;100.00;39621.91;5112458;28;20272;-72
2024/01/04 01:54:56;;;;;;;19.77;18.77;;;;;;;-141.02;100.00;39589.28;5112171;28;20239;-72
2024/01/04 01:57:27;;;;;;;18.47;17.57;;;;;;;-141.02;100.00;39633.41;5112411;28;20284;-72
2024/01/04 01:59:54;;;;;;;19.60;18.60;;;;;;;-141.02;100.00;39575.88;5112228;28;20189;-72
2024/01/04 02:02:22;;;;;;;19.13;18.23;;;;;;;-141.02;100.00;39570.13;5112434;28;20197;-72
2024/01/04 02:04:49;;;;;;;17.77;16.87;;;;;;;-141.02;100.00;39589.28;5112032;28;20326;-72
2024/01/04 02:07:16;;;;;;;18.97;18.07;;;;;;;-141.02;100.00;39589.28;5112385;28;20193;-72
2024/01/04 02:09:43;;;;;;;19.03;18.13;;;;;;;-141.02;100.00;39554.78;5112029;28;20196;-72
2024/01/04 02:12:13;;;;;;;18.67;17.77;;;;;;;-141.02;100.00;39784.91;5112325;28;20227;-73
2024/01/04 02:14:41;;;;;;;18.70;17.80;;;;;;;-141.02;100.00;39577.78;5112082;28;20232;-73
2024/01/04 02:17:11;;;;;;;18.77;17.87;;;;;;;-141.02;100.00;39579.69;5112079;28;20667;-72
2024/01/04 02:19:39;;;;;;;17.60;16.70;;;;;;;-141.02;100.00;39585.44;5112666;28;20197;-72
2024/01/04 02:22:06;;;;;;;21.13;19.97;;;;;;;-141.02;100.00;39606.56;5112298;28;20276;-72
2024/01/04 02:24:34;;;;;;;18.97;17.97;;;;;;;-141.02;100.00;39573.94;5112425;28;20229;-71
2024/01/04 02:27:01;;;;;;;19.00;18.00;;;;;;;-141.02;100.00;39543.25;5111899;28;20568;-72
2024/01/04 02:29:28;;;;;;;18.60;17.70;;;;;;;-141.02;100.00;39572.03;5112249;28;20199;-73
2024/01/04 02:31:55;;;;;;;18.63;17.73;;;;;;;-141.02;100.00;39570.13;5111844;28;20211;-72
2024/01/04 02:34:22;;;;;;;19.27;18.37;;;;;;;-141.02;100.00;39556.69;5111840;28;20564;-72
2024/01/04 02:36:49;;;;;;;17.23;16.33;;;;;;;-141.02;100.00;39562.44;5112140;28;20232;-72
2024/01/04 02:39:15;;;;;;;18.93;17.97;;;;;;;-141.02;100.00;39554.78;5111828;28;20574;-72
2024/01/04 02:41:44;;;;;;;18.47;17.57;;;;;;;-141.02;100.00;39543.25;5114317;28;20284;-72
2024/01/04 02:44:11;;;;;;;19.37;18.37;;;;;;;-141.02;100.00;39566.28;5115629;28;20235;-72
2024/01/04 02:46:38;;;;;;;18.80;17.90;;;;;;;-141.02;100.00;39564.34;5115666;28;20197;-72
2024/01/04 02:49:05;;;;;;;18.70;17.70;;;;;;;-141.02;100.00;39531.75;5115353;28;20647;-72
2024/01/04 02:51:31;;;;;;;17.97;17.07;;;;;;;-141.02;100.00;39581.63;5115172;28;20197;-72
2024/01/04 02:53:58;;;;;;;17.87;16.97;;;;;;;-141.02;100.00;39550.94;5115268;28;20196;-72
2024/01/04 02:56:25;;;;;;;18.80;17.90;;;;;;;-141.02;100.00;39550.94;5115725;28;20192;-72
2024/01/04 02:58:54;;;;;;;19.80;18.80;;;;;;;-141.02;100.00;39579.69;5115168;28;20289;-72
2024/01/04 03:01:21;;;;;;;19.20;18.20;;;;;;;-141.02;100.00;39543.25;5115130;28;20203;-72
2024/01/04 03:03:51;;;;;;;24.43;23.13;;;;;;;-141.02;100.00;39566.28;5115295;28;20256;-72
2024/01/04 03:06:22;;;;;;;23.43;22.23;;;;;;;-141.02;100.00;39543.25;5115024;28;20205;-72
2024/01/04 03:08:49;;;;;;;18.00;17.10;;;;;;;-141.02;100.00;39573.94;5115193;28;20569;-72
2024/01/04 03:11:16;;;;;;;19.80;18.80;;;;;;;-141.02;100.00;39570.13;5115242;28;20199;-72
2024/01/04 03:13:43;;;;;;;19.20;18.30;;;;;;;-141.02;100.00;39558.59;5114583;28;20323;-72
2024/01/04 03:16:11;;;;;;;19.20;18.20;;;;;;;-141.02;100.00;39535.59;5114813;28;20280;-72
2024/01/04 03:18:38;;;;;;;19.13;18.13;;;;;;;-141.02;100.00;39539.44;5115062;28;20225;-73
2024/01/04 03:21:06;;;;;;;19.03;18.03;;;;;;;-141.02;100.00;39520.25;5114666;28;20577;-72
2024/01/04 03:23:33;;;;;;;18.90;17.90;;;;;;;-141.02;100.00;39535.59;5114932;28;20307;-72
2024/01/04 03:26:00;;;;;;;26.73;25.43;;;;;;;-141.02;100.00;39524.09;5115144;28;20272;-72
2024/01/04 03:28:27;;;;;;;18.57;17.67;;;;;;;-141.02;100.00;39550.94;5114849;28;20193;-72
2024/01/04 03:30:54;;;;;;;19.10;18.10;;;;;;;-141.02;100.00;39566.28;5114508;28;20671;-72
2024/01/04 03:33:22;;;;;;;19.30;18.30;;;;;;;-141.02;100.00;39577.78;5114494;28;20232;-72
2024/01/04 03:35:49;;;;;;;18.90;17.90;;;;;;;-141.02;100.00;39564.34;5114508;28;20284;-72
2024/01/04 03:38:16;;;;;;;19.00;18.00;;;;;;;-141.02;100.00;39539.44;5114390;28;20288;-72
2024/01/04 03:40:43;;;;;;;19.57;18.57;;;;;;;-141.02;100.00;39547.09;5114885;28;20193;-72
2024/01/04 03:43:10;;;;;;;18.07;17.17;;;;;;;-141.02;100.00;39577.78;5114520;28;20299;-72
2024/01/04 03:45:37;;;;;;;19.43;18.43;;;;;;;-141.02;100.00;39566.28;5114152;28;20224;-72
2024/01/04 03:48:04;;;;;;;19.40;18.40;;;;;;;-141.02;100.00;39577.78;5114479;28;20219;-72
2024/01/04 03:50:32;;;;;;;19.60;18.60;;;;;;;-141.02;100.00;39560.53;5114486;28;20637;-71
2024/01/04 03:52:59;;;;;;;18.87;17.87;;;;;;;-141.02;100.00;39585.44;5113732;28;20656;-72
2024/01/04 03:55:26;;;;;;;19.67;18.67;;;;;;;-141.02;100.00;39562.44;5114351;28;20193;-71
2024/01/04 03:57:53;;;;;;;19.33;18.33;;;;;;;-141.02;100.00;39541.34;5114321;28;20280;-72
2024/01/04 04:00:20;;;;;;;17.97;17.03;;;;;;;-141.02;100.00;39556.69;5113907;28;20319;-73
2024/01/04 04:02:47;;;;;;;18.80;17.80;;;;;;;-141.02;100.00;39531.75;5114434;28;20275;-72
2024/01/04 04:05:14;;;;;;;18.27;17.27;;;;;;;-141.02;100.00;39527.91;5113760;28;20316;-72
2024/01/04 04:07:43;;;;;;;18.80;17.80;;;;;;;-141.02;100.00;39550.94;5113747;28;20555;-72
2024/01/04 04:10:10;;;;;;;19.40;18.30;;;;;;;-141.02;100.00;39562.44;5113769;28;20577;-72
2024/01/04 04:12:37;;;;;;;19.37;18.27;;;;;;;-141.02;100.00;39570.13;5114015;28;20197;-72
2024/01/04 04:15:05;;;;;;;27.77;26.30;;;;;;;-141.02;100.00;39547.09;5113734;28;20232;-72
2024/01/04 04:17:32;;;;;;;17.57;16.57;;;;;;;-141.02;100.00;39550.94;5113922;28;20303;-72
2024/01/04 04:19:59;;;;;;;18.67;17.57;;;;;;;-141.02;100.00;39564.34;5113883;28;20200;-72
2024/01/04 04:22:26;;;;;;;19.40;18.30;;;;;;;-141.02;100.00;39562.44;5113546;28;20284;-72
2024/01/04 04:24:54;;;;;;;19.07;17.97;;;;;;;-141.02;100.00;39558.59;5113890;28;20225;-72
2024/01/04 04:27:21;;;;;;;19.37;18.27;;;;;;;-141.02;100.00;39598.88;5113417;28;20203;-72
2024/01/04 04:29:48;;;;;;;19.80;18.70;;;;;;;-141.02;100.00;39566.28;5113420;28;20730;-72
2024/01/04 04:32:15;;;;;;;30.47;28.77;;;;;;;-141.02;100.00;39535.59;5113592;28;20235;-72
2024/01/04 04:34:41;;;;;;;19.40;18.20;;;;;;;-141.02;100.00;39527.91;5113309;28;20750;-72
2024/01/04 04:37:08;;;;;;;18.00;17.00;;;;;;;-141.02;100.00;39566.28;5113195;28;20203;-72
2024/01/04 04:39:37;;;;;;;22.60;21.30;;;;;;;-141.02;100.00;39564.34;5113167;28;20730;-72
2024/01/04 04:42:05;;;;;;;18.33;17.23;;;;;;;-141.02;100.00;39556.69;5113433;28;20199;-72
2024/01/04 04:44:32;;;;;;;18.83;17.73;;;;;;;-141.02;100.00;39539.44;5112969;28;20225;-72
2024/01/04 04:46:59;;;;;;;18.50;17.40;;;;;;;-141.02;100.00;39539.44;5113360;28;20232;-73
2024/01/04 04:49:28;;;;;;;18.60;17.50;;;;;;;-141.02;100.00;39562.44;5112995;28;20193;-72
2024/01/04 04:51:55;;;;;;;18.57;17.47;;;;;;;-141.02;100.00;39531.75;5112942;28;20196;-72
2024/01/04 04:54:22;;;;;;;18.47;17.37;;;;;;;-141.02;100.00;39564.34;5113212;28;20236;-72
2024/01/04 04:56:49;;;;;;;18.13;17.03;;;;;;;-141.02;100.00;39512.56;5113272;28;20636;-72
2024/01/04 04:59:17;;;;;;;17.47;16.37;;;;;;;-141.02;100.00;39537.50;5113224;28;20272;-72
2024/01/04 05:01:44;;;;;;;18.70;17.50;;;;;;;-141.02;100.00;39537.50;5112784;28;20193;-73
2024/01/04 05:04:12;;;;;;;26.20;24.77;;;;;;;-141.02;100.00;39535.59;5111986;28;20319;-72
2024/01/04 05:06:39;;;;;;;18.50;17.40;;;;;;;-141.02;100.00;39550.94;5112976;28;20208;-72
2024/01/04 05:09:07;;;;;;;19.00;17.90;;;;;;;-141.02;100.00;39531.75;5113086;28;20286;-73
2024/01/04 05:11:34;;;;;;;18.73;17.63;;;;;;;-141.02;100.00;39543.25;5112979;28;20651;-73
2024/01/04 05:14:02;;;;;;;18.60;17.60;;;;;;;-141.02;100.00;39545.19;5113051;28;20225;-73
2024/01/04 05:16:30;;;;;;;20.67;19.47;;;;;;;-141.02;100.00;39537.50;5112884;28;20197;-73
2024/01/04 05:18:58;;;;;;;19.90;18.80;;;;;;;-141.02;100.00;39535.59;5112900;28;20197;-73
2024/01/04 05:21:25;;;;;;;22.83;21.63;;;;;;;-141.02;100.00;39531.75;5112615;28;20663;-72
2024/01/04 05:23:52;;;;;;;18.33;17.27;;;;;;;-141.02;100.00;39537.50;5112453;28;20288;-73
2024/01/04 05:26:21;;;;;;;17.73;16.73;;;;;;;-141.02;100.00;39564.34;5112471;28;20284;-72
2024/01/04 05:28:48;;;;;;;17.60;16.60;;;;;;;-141.02;100.00;39539.44;5112703;28;20192;-73
2024/01/04 05:31:18;;;;;;;17.90;16.90;;;;;;;-141.02;100.00;39527.91;5112692;28;20658;-72
2024/01/04 05:33:46;;;;;;;16.90;15.90;;;;;;;-141.02;100.00;39585.44;5112672;28;20616;-73
2024/01/04 05:36:13;;;;;;;17.80;16.80;;;;;;;-141.02;100.00;39558.59;5112593;28;20197;-72
2024/01/04 05:38:55;;;;;;;17.03;16.03;;;;;;;-141.02;100.00;39587.38;5112688;28;20306;-73
2024/01/04 05:41:22;;;;;;;17.50;16.50;;;;;;;-141.02;100.00;39658.34;5112848;28;20189;-73
2024/01/04 05:43:49;;;;;;;16.87;15.97;;;;;;;-141.02;100.00;39777.25;5112605;28;20193;-73
2024/01/04 05:46:17;;;;;;;22.83;21.60;;;;;;;-141.02;100.00;39951.78;5112175;28;20231;-73
2024/01/04 05:48:44;;;;;;;17.33;16.33;;;;;;;-141.02;100.00;40053.44;5112578;28;20197;-73
2024/01/04 05:51:12;;;;;;;17.10;16.10;;;;;;;-141.02;100.00;40137.84;5112296;28;20193;-73
2024/01/04 05:53:39;;;;;;;19.80;18.80;;;;;;;-141.02;100.00;40176.22;5112539;28;20206;-72
2024/01/04 05:56:06;;;;;;;16.80;15.90;;;;;;;-141.02;100.00;40122.50;5112220;28;20203;-73
2024/01/04 05:58:33;;;;;;;16.27;15.37;;;;;;;-141.02;100.00;40074.56;5112163;28;20280;-72
2024/01/04 06:01:00;;;;;;;16.90;16.00;;;;;;;-141.02;100.00;40076.47;5112188;28;20193;-72
2024/01/04 06:03:27;;;;;;;16.70;15.80;;;;;;;-141.02;100.00;40199.22;5112528;28;20640;-72
2024/01/04 06:05:54;;;;;;;17.13;16.23;;;;;;;-141.02;100.00;40331.59;5112079;28;20817;-72
2024/01/04 06:08:22;;;;;;;16.97;16.07;;;;;;;-141.02;100.00;40414.09;5112386;28;20246;-72
2024/01/04 06:10:49;;;;;;;17.03;16.13;;;;;;;-141.02;100.00;40383.38;5112064;28;20685;-73
2024/01/04 06:13:18;;;;;;;17.10;16.20;;;;;;;-141.02;100.00;40383.38;5112183;28;20229;-73
2024/01/04 06:15:45;;;;;;;17.40;16.50;;;;;;;-141.02;100.00;40414.09;5115012;28;20182;-73
2024/01/04 06:18:12;;;;;;;17.47;16.57;;;;;;;-141.02;100.00;40456.28;5116278;28;20207;-72
2024/01/04 06:20:39;;;;;;;17.07;16.17;;;;;;;-141.02;100.00;40640.47;5116229;28;20193;-72
2024/01/04 06:23:06;;;;;;;17.67;16.77;;;;;;;-141.02;100.00;40571.41;5116072;28;20547;-72
2024/01/04 06:25:34;;;;;;;16.87;15.97;;;;;;;-141.02;100.00;40467.81;5116105;28;20228;-73
2024/01/04 06:28:01;;;;;;;17.47;16.47;;;;;;;-141.02;100.00;40582.91;5116038;28;20193;-73
2024/01/04 06:30:28;;;;;;;17.73;16.83;;;;;;;-141.02;100.00;40604.00;5115820;28;20288;-72
2024/01/04 06:32:55;;;;;;;22.37;21.20;;;;;;;-141.02;100.00;40617.44;5115692;28;20284;-73
2024/01/04 06:35:22;;;;;;;18.20;17.20;;;;;;;-141.02;100.00;40533.03;5115561;28;20581;-73
2024/01/04 06:37:49;;;;;;;18.13;17.13;;;;;;;-141.02;100.00;40540.69;5115498;28;20193;-73
2024/01/04 06:40:16;;;;;;;17.53;16.63;;;;;;;-141.02;100.00;40600.16;5115800;28;20204;-73
2024/01/04 06:42:53;;;;;;;18.08;17.08;;;;;;;-141.02;100.00;40563.72;5115461;28;20582;-73
2024/01/04 06:45:20;;;;;;;18.17;17.17;;;;;;;-141.02;100.00;40582.91;5115903;28;20209;-73
2024/01/04 06:47:46;;;;;;;17.90;16.90;;;;;;;-141.02;100.00;40644.28;5115352;28;20189;-72
2024/01/04 06:50:14;;;;;;;17.80;16.80;;;;;;;-141.02;100.00;40751.72;5115530;28;20276;-72
2024/01/04 06:52:41;;;;;;;17.77;16.77;;;;;;;-141.02;100.00;40870.69;5115671;28;20197;-73
2024/01/04 06:55:10;;;;;;;17.00;16.10;;;;;;;-141.02;100.00;41035.69;5115560;28;20250;-73
2024/01/04 06:57:37;;;;;;;17.53;16.63;;;;;;;-141.02;100.00;40974.28;5115227;28;20197;-73
2024/01/04 07:00:07;;;;;;;18.53;17.53;;;;;;;-141.02;100.00;40864.94;5115155;28;20240;-73
2024/01/04 07:02:35;;;;;;;17.90;17.00;;;;;;;-141.02;100.00;40788.19;5115702;28;20711;-73
2024/01/04 07:05:03;;;;;;;17.40;16.50;;;;;;;-141.02;100.00;40836.16;5115010;28;20694;-72
2024/01/04 07:07:31;;;;;;;17.43;16.53;;;;;;;-141.02;100.00;40847.66;5114926;28;20197;-73
2024/01/04 07:09:58;;;;;;;17.90;17.00;;;;;;;-141.02;100.00;40859.19;5114932;28;20280;-72
2024/01/04 07:12:26;;;;;;;17.70;16.80;;;;;;;-141.02;100.00;40957.03;5114949;28;20189;-72
2024/01/04 07:14:53;;;;;;;18.10;17.10;;;;;;;-141.02;100.00;41035.69;5114831;28;20235;-72
2024/01/04 07:17:22;;;;;;;17.90;16.90;;;;;;;-141.02;100.00;41154.66;5114867;28;20255;-73
2024/01/04 07:19:49;;;;;;;18.50;17.47;;;;;;;-141.02;100.00;41419.47;5114704;28;20655;-73
2024/01/04 07:22:16;;;;;;;22.83;21.63;;;;;;;-141.02;100.00;41438.66;5115032;28;20583;-72
2024/01/04 07:24:43;;;;;;;17.07;16.07;;;;;;;-141.02;100.00;41549.94;5114935;28;20199;-72
2024/01/04 07:27:10;;;;;;;17.70;16.70;;;;;;;-141.02;100.00;41498.13;5114149;28;20243;-73
2024/01/04 07:29:37;;;;;;;17.90;16.90;;;;;;;-141.02;100.00;41565.31;5114859;28;20193;-72
2024/01/04 07:32:05;;;;;;;18.40;17.40;;;;;;;-141.02;100.00;41454.00;5114468;28;20280;-73
2024/01/04 07:34:38;;;;;;;17.88;16.88;;;;;;;-141.02;100.00;41478.94;5114842;28;20646;-72
2024/01/04 07:37:05;;;;;;;17.70;16.70;;;;;;;-141.02;100.00;41432.91;5114408;28;20643;-73
2024/01/04 07:39:32;;;;;;;17.77;16.77;;;;;;;-141.02;100.00;41599.84;5114358;28;20570;-72
2024/01/04 07:41:58;;;;;;;17.85;16.85;;;;;;;-141.02;100.00;41665.09;5114631;28;20272;-73
2024/01/04 07:44:25;;;;;;;21.20;20.00;;;;;;;-141.02;100.00;41713.06;5114612;28;20248;-72
2024/01/04 07:46:52;;;;;;;19.00;17.90;;;;;;;-141.02;100.00;41803.28;5114168;28;20231;-73
2024/01/04 07:49:19;;;;;;;17.57;16.57;;;;;;;-141.02;100.00;41741.84;5114687;28;20189;-72
2024/01/04 07:51:48;;;;;;;17.60;16.60;;;;;;;-141.02;100.00;41745.69;5114504;28;20271;-72
2024/01/04 07:54:15;;;;;;;18.40;17.40;;;;;;;-141.02;100.00;41699.63;5114045;28;20551;-73
2024/01/04 07:56:42;;;;;;;18.60;17.50;;;;;;;-141.02;100.00;41741.84;5114456;28;20197;-72
2024/01/04 07:59:09;;;;;;;18.93;17.83;;;;;;;-141.02;100.00;41828.22;5114332;28;20197;-72
2024/01/04 08:01:36;;;;;;;19.00;17.90;;;;;;;-141.02;100.00;41906.91;5114225;28;20201;-72
2024/01/04 08:04:03;;;;;;;18.83;17.63;;;;;;;-141.02;100.00;41795.59;5113920;28;20244;-72
2024/01/04 08:06:31;;;;;;;19.47;18.27;;;;;;;-141.02;100.00;41755.28;5114064;28;20610;-73
2024/01/04 08:08:59;;;;;;;19.02;17.90;;;;;;;-141.02;100.00;41757.22;5114111;28;20193;-72
2024/01/04 08:11:26;;;;;;;18.50;17.40;;;;;;;-141.02;100.00;41864.69;5114381;28;20201;-72
2024/01/04 08:13:53;;;;;;;19.55;18.35;;;;;;;-141.02;100.00;41814.78;5113590;28;20327;-72
2024/01/04 08:16:20;;;;;;;19.80;18.60;;;;;;;-141.02;100.00;41645.91;5113687;28;20641;-72
2024/01/04 08:18:47;;;;;;;18.50;17.30;;;;;;;-141.02;100.00;41480.88;5114136;28;20235;-73
2024/01/04 08:21:15;;;;;;;19.80;18.50;;;;;;;-141.02;100.00;41308.16;5113917;28;20280;-73
2024/01/04 08:23:43;;;;;;;19.60;18.35;;;;;;;-141.02;100.00;41315.84;5114089;28;20193;-72
2024/01/04 08:26:11;;;;;;;19.50;18.20;;;;;;;-141.02;100.00;41260.19;5114228;28;20229;-72
2024/01/04 08:28:39;;;;;;;19.42;18.17;;;;;;;-141.02;100.00;41461.69;5113744;28;20216;-73
2024/01/04 08:31:07;;;;;;;19.95;18.65;;;;;;;-141.02;100.00;41526.91;5113867;28;20216;-72
2024/01/04 08:33:34;;;;;;;19.50;18.30;;;;;;;-141.02;100.00;41565.31;5113644;28;20655;-72
2024/01/04 08:36:01;;;;;;;20.30;18.90;;;;;;;-141.02;100.00;41467.44;5113437;28;20288;-72
2024/01/04 08:38:30;;;;;;;20.02;18.73;;;;;;;-141.02;100.00;41342.69;5113539;28;20189;-72
2024/01/04 08:40:57;;;;;;;20.10;18.77;;;;;;;-141.02;100.00;41283.22;5113222;28;20193;-72
2024/01/04 08:43:25;;;;;;;18.88;17.67;;;;;;;-141.02;100.00;41450.16;5113130;28;20283;-73
2024/01/04 08:45:52;;;;;;;25.35;23.75;;;;;;;-141.02;100.00;41684.28;5113084;28;20315;-72
2024/01/04 08:48:19;;;;;;;20.30;18.90;;;;;;;-141.02;100.00;41655.50;5113042;28;20288;-72
2024/01/04 08:50:46;;;;;;;20.58;19.17;;;;;;;-141.02;100.00;41999.03;5113071;28;20233;-72
2024/01/04 08:53:13;;;;;;;20.65;19.25;;;;;;;-141.02;100.00;42576.78;5113285;28;20229;-72
2024/01/04 08:55:40;;;;;;;27.65;25.83;;;;;;;-141.02;100.00;42114.19;5113236;28;20200;-73
2024/01/04 08:58:08;;;;;;;28.00;26.10;;;;;;;-141.02;100.00;42565.25;5112913;28;20236;-72
2024/01/04 09:00:37;;;;;;;21.42;19.88;;;;;;;-141.02;100.00;42465.44;5113076;28;20714;-73
2024/01/04 09:03:04;;;;;;;21.95;20.17;;;;;;;-141.02;100.00;43112.41;5113061;28;20208;-72
2024/01/04 09:05:31;;;;;;;26.40;24.40;;;;;;;-141.02;100.00;43315.91;5113015;28;20252;-72
2024/01/04 09:07:58;;;;;;;22.02;20.13;;;;;;;-141.02;100.00;43719.13;5113070;28;20196;-72
2024/01/04 09:10:25;;;;;;;21.92;20.13;;;;;;;-141.02;94.80;43227.59;5113024;28;20201;-72
2024/01/04 09:12:52;;;;;;;29.83;27.52;;;;;;;-141.02;96.31;43442.63;5112951;28;20193;-72
2024/01/04 09:15:19;;;;;;;33.13;30.63;;;;;;;-141.02;97.10;43646.16;5112774;28;20225;-71
2024/01/04 09:17:49;;;;;;;21.90;20.00;;;;;;;-141.02;100.00;43258.31;5112605;28;20193;-72
2024/01/04 09:20:16;;;;;;;22.75;20.80;;;;;;;-141.02;99.56;43173.81;5112595;28;20239;-72
2024/01/04 09:22:44;;;;;;;30.98;28.58;;;;;;;-141.02;98.38;43926.53;5112820;28;20197;-72
2024/01/04 09:25:11;;;;;;;23.85;21.75;;;;;;;-141.02;95.54;44022.56;5112784;28;20196;-71
2024/01/04 09:27:38;;;;;;;23.77;21.67;;;;;;;-141.02;89.41;43208.38;5112764;28;20296;-72
2024/01/04 09:30:06;;;;;;;34.55;31.95;;;;;;;-141.02;84.87;42864.72;5112736;28;20194;-71
2024/01/04 09:32:33;;;;;;;30.88;28.38;;;;;;;-141.02;90.31;42739.94;5113178;28;20193;-71
2024/01/04 09:35:01;;;;;;;22.83;20.75;;;;;;;-141.02;93.21;43822.84;5112983;28;20189;-71
2024/01/04 09:37:28;;;;;;;24.65;22.45;;;;;;;-141.02;87.79;43684.56;5112422;28;20193;-71
2024/01/04 09:39:55;;;;;;;36.80;34.05;;;;;;;-141.02;84.53;43734.50;5112376;28;20284;-71
2024/01/04 09:42:23;;;;;;;22.95;20.75;;;;;;;-141.02;82.02;43915.00;5112367;28;20283;-72
2024/01/04 09:44:54;;;;;;;23.80;21.60;;;;;;;-141.02;81.56;43765.22;5112641;28;20562;-71
2024/01/04 09:47:23;;;;;;;31.42;28.75;;;;;;;-141.02;82.74;43605.84;5112304;28;20212;-71
2024/01/04 09:49:51;;;;;;;37.33;34.33;;;;;;;-141.02;82.13;43600.09;5113323;28;20189;-71
2024/01/04 09:52:21;;;;;;;25.17;22.88;;;;;;;-141.02;83.06;43484.88;5117003;28;20197;-71
2024/01/04 09:54:51;;;;;;;25.88;23.58;;;;;;;-141.02;79.87;43383.09;5116462;28;20196;-71
2024/01/04 09:57:20;;;;;;;33.33;30.60;;;;;;;-141.02;79.99;43795.94;5116379;28;20196;-71
2024/01/04 09:59:47;;;;;;;25.90;23.50;;;;;;;-141.02;79.59;43563.59;5116688;28;20192;-71
2024/01/04 10:02:19;;;;;;;26.30;23.88;;;;;;;-141.02;81.68;43527.13;5116351;28;20284;-71
2024/01/04 10:04:48;;;;;;;24.35;22.05;;;;;;;-141.02;81.26;43761.38;5116262;28;20188;-72
2024/01/04 10:07:24;;;;;;;34.05;31.25;;;;;;;-141.02;75.89;43638.50;5116489;28;20225;-71
2024/01/04 10:10:00;;;;;;;27.17;24.67;;;;;;;-141.02;79.02;44122.41;5116216;28;20690;-72
2024/01/04 10:12:32;;;;;;;26.30;23.70;;;;;;;-141.02;74.25;43523.28;5116100;28;20181;-71
2024/01/04 10:14:59;;;;;;;34.00;31.10;;;;;;;-141.02;76.93;43920.78;5116154;28;20667;-71
2024/01/04 10:17:26;;;;;;;30.58;27.88;;;;;;;-141.02;74.28;44197.31;5116045;28;20288;-71
2024/01/04 10:19:53;;;;;;;25.33;22.83;;;;;;;-141.02;70.10;43473.34;5116767;28;20578;-71
2024/01/04 10:22:22;;;;;;;28.02;25.33;;;;;;;-141.02;70.85;42874.34;5115965;28;20753;-71
2024/01/04 10:24:51;;;;;;;26.42;23.88;;;;;;;-141.02;72.58;42739.94;5116139;28;20189;-72
2024/01/04 10:27:18;;;;;;;25.65;23.25;;;;;;;-141.02;76.85;43148.88;5115793;28;20225;-71
2024/01/04 10:29:50;;;;;;;25.95;23.45;;;;;;;-141.02;75.77;42601.72;5115753;28;20232;-72
2024/01/04 10:32:17;;;;;;;26.25;23.75;;;;;;;-141.02;73.67;42430.91;5115792;28;20210;-71
2024/01/04 10:34:45;;;;;;;38.40;35.30;;;;;;;-141.02;74.13;42515.34;5115768;28;20251;-71
2024/01/04 10:37:13;;;;;;;24.67;22.27;;;;;;;-141.02;77.26;42832.09;5115628;28;20193;-71
2024/01/04 10:39:45;;;;;;;25.65;23.25;;;;;;;-141.02;76.64;43845.88;5115933;28;20581;-71
2024/01/04 10:42:15;;;;;;;30.95;28.35;;;;;;;-141.02;74.29;44164.66;5115543;28;20184;-72
2024/01/04 10:44:45;;;;;;;32.10;29.20;;;;;;;-141.02;71.00;43554.00;5115453;28;20585;-71
2024/01/04 10:47:14;;;;;;;25.58;23.08;;;;;;;-141.02;67.03;43100.88;5115685;28;20304;-71
2024/01/04 10:49:43;;;;;;;26.95;24.40;;;;;;;-141.02;67.97;42582.53;5116301;28;20246;-71
2024/01/04 10:52:14;;;;;;;25.73;23.30;;;;;;;-141.02;69.48;42313.81;5115689;28;20193;-71
2024/01/04 10:54:43;;;;;;;25.15;22.75;;;;;;;-141.02;71.39;42235.09;5115686;27;20185;-72
2024/01/04 10:57:12;;;;;;;26.05;23.55;;;;;;;-141.02;73.77;42116.09;5116065;28;20197;-70
2024/01/04 10:59:43;;;;;;;34.97;32.08;;;;;;;-141.02;74.23;41939.53;5115194;28;20280;-71